createdAt,value
2022-09-26T06:01:41.056Z,92.46
2022-09-26T06:04:57.076Z,92.33
2022-09-26T06:08:24.808Z,92.01
2022-09-26T06:11:58.357Z,91.59
2022-09-26T06:15:00.766Z,91.70
2022-09-26T06:18:04.752Z,90.93
2022-09-26T06:21:09.615Z,90.72
2022-09-26T06:24:13.153Z,89.58
2022-09-26T06:27:16.243Z,89.49
2022-09-26T06:30:18.123Z,89.41
2022-09-26T06:33:21.669Z,88.97
2022-09-26T06:36:34.082Z,88.37
2022-09-26T06:39:36.871Z,87.96
2022-09-26T06:42:40.291Z,88.76
2022-09-26T06:46:03.060Z,88.27
2022-09-26T06:49:16.619Z,88.37
2022-09-26T06:52:36.000Z,88.52
2022-09-26T06:55:38.095Z,88.53
2022-09-26T06:58:39.742Z,88.76
2022-09-26T07:01:44.314Z,87.03
2022-09-26T07:05:23.312Z,88.05
2022-09-26T07:08:49.989Z,87.55
2022-09-26T07:12:13.551Z,87.36
2022-09-26T07:15:17.036Z,87.11
2022-09-26T07:18:18.581Z,87.16
2022-09-26T07:21:35.049Z,86.60
2022-09-26T07:24:49.501Z,86.51
2022-09-26T07:27:52.376Z,86.58
2022-09-26T07:30:58.784Z,86.67
2022-09-26T07:34:18.735Z,86.27
2022-09-26T07:37:21.218Z,86.15
2022-09-26T07:40:23.763Z,85.13
2022-09-26T07:43:50.263Z,84.14
2022-09-26T07:47:06.236Z,83.23
2022-09-26T07:50:16.994Z,83.41
2022-09-26T07:53:41.411Z,82.69
2022-09-26T07:57:09.118Z,82.41
2022-09-26T08:00:31.354Z,82.08
2022-09-26T08:03:55.589Z,81.77
2022-09-26T08:07:02.307Z,81.30
2022-09-26T08:10:06.541Z,80.99
2022-09-26T08:13:44.870Z,80.70
2022-09-26T08:17:14.357Z,79.27
2022-09-26T08:20:16.473Z,78.96
2022-09-26T08:23:18.125Z,77.75
2022-09-26T08:26:43.903Z,78.52
2022-09-26T08:29:56.804Z,77.59
2022-09-26T08:33:01.247Z,77.49
2022-09-26T08:36:10.273Z,77.23
2022-09-26T08:39:33.302Z,78.23
2022-09-26T08:43:35.690Z,76.97
2022-09-26T08:47:30.079Z,76.12
2022-09-26T08:50:59.306Z,76.68
2022-09-26T08:54:11.179Z,75.65
2022-09-26T08:57:39.167Z,75.01
2022-09-26T09:00:41.665Z,75.61
2022-09-26T09:03:59.979Z,75.09
2022-09-26T09:07:20.602Z,74.98
2022-09-26T09:10:42.746Z,74.65
2022-09-26T09:14:20.543Z,72.73
2022-09-26T09:18:18.281Z,73.84
2022-09-26T09:21:44.706Z,74.43
2022-09-26T09:25:43.144Z,74.37
2022-09-26T09:28:56.875Z,73.18
2022-09-26T09:32:02.278Z,73.61
2022-09-26T09:35:30.117Z,73.57
2022-09-26T09:38:39.030Z,73.13
2022-09-26T09:41:55.435Z,74.61
2022-09-26T09:45:04.018Z,75.03
2022-09-26T09:48:12.417Z,75.12
2022-09-26T09:51:40.466Z,73.92
2022-09-26T09:54:50.419Z,75.21
2022-09-26T09:58:17.228Z,72.61
2022-09-26T10:01:28.509Z,73.91
2022-09-26T10:05:00.337Z,73.83
2022-09-26T10:08:04.481Z,74.61
2022-09-26T10:11:31.826Z,73.55
2022-09-26T10:14:56.558Z,72.54
2022-09-26T10:18:26.386Z,73.29
2022-09-26T10:21:42.423Z,72.67
2022-09-26T10:24:47.170Z,72.30
2022-09-26T10:27:57.859Z,72.30
2022-09-26T10:31:08.978Z,72.63
2022-09-26T10:34:30.381Z,72.96
2022-09-26T10:37:36.149Z,74.78
2022-09-26T10:40:55.091Z,74.64
2022-09-26T10:43:59.391Z,74.38
2022-09-26T10:47:31.398Z,75.78
2022-09-26T10:50:53.261Z,75.61
2022-09-26T10:54:04.376Z,77.84
2022-09-26T10:57:12.433Z,77.51
2022-09-26T11:00:40.117Z,79.15
2022-09-26T11:04:10.224Z,78.56
2022-09-26T11:07:35.871Z,78.72
2022-09-26T11:11:15.184Z,78.18
2022-09-26T11:14:32.623Z,78.05
2022-09-26T11:17:47.920Z,77.78
2022-09-26T11:20:53.496Z,77.15
2022-09-26T11:30:48.271Z,73.42
2022-09-26T11:33:56.017Z,73.26
2022-09-26T11:41:16.516Z,75.65
2022-09-26T11:45:07.064Z,77.48
2022-09-26T11:48:43.854Z,79.51
2022-09-26T11:52:43.282Z,79.94
2022-09-26T11:56:07.880Z,81.47
2022-09-26T11:59:24.745Z,81.32
2022-09-26T12:02:35.328Z,81.74
2022-09-26T12:05:48.843Z,81.04
2022-09-26T12:08:53.209Z,81.72
2022-09-26T12:12:17.961Z,80.99
2022-09-26T12:15:31.632Z,82.60
2022-09-26T12:18:47.118Z,82.70
2022-09-26T12:22:28.441Z,81.98
2022-09-26T12:25:47.950Z,80.90
2022-09-26T12:29:06.308Z,82.84
2022-09-26T12:32:07.885Z,82.35
2022-09-26T12:35:37.437Z,83.26
2022-09-26T12:39:08.742Z,82.78
2022-09-26T12:42:35.037Z,83.93
2022-09-26T12:45:55.302Z,84.32
2022-09-26T12:49:55.066Z,83.27
2022-09-26T12:52:59.182Z,83.53
2022-09-26T12:56:23.025Z,84.81
2022-09-26T12:59:43.932Z,82.82
2022-09-26T13:03:13.525Z,84.17
2022-09-26T13:06:27.577Z,83.38
2022-09-26T13:09:38.919Z,82.97
2022-09-26T13:12:49.858Z,82.62
2022-09-26T13:15:58.000Z,83.08
2022-09-26T13:19:12.744Z,83.08
2022-09-26T13:22:34.401Z,83.58
2022-09-26T13:25:54.367Z,80.86
2022-09-26T13:29:23.306Z,81.80
2022-09-26T13:32:48.386Z,83.51
2022-09-26T13:35:52.245Z,82.44
2022-09-26T13:38:59.944Z,83.60
2022-09-26T13:42:22.614Z,85.99
2022-09-26T13:45:50.641Z,84.99
2022-09-26T13:49:02.211Z,85.04
2022-09-26T13:52:52.324Z,83.42
2022-09-26T13:56:41.221Z,86.44
2022-09-26T13:59:54.148Z,87.49
2022-09-26T14:03:14.016Z,88.03
2022-09-26T14:06:26.481Z,87.52
2022-09-26T14:09:42.052Z,86.81
2022-09-26T14:12:55.696Z,86.59
2022-09-26T14:16:28.197Z,87.50
2022-09-26T14:19:45.716Z,86.53
2022-09-26T14:22:52.595Z,86.66
2022-09-26T14:25:55.670Z,87.53
2022-09-26T14:29:25.276Z,88.64
2022-09-26T14:32:38.525Z,89.48
2022-09-26T14:35:40.105Z,88.90
2022-09-26T14:38:45.327Z,88.88
2022-09-26T14:41:46.936Z,89.32
2022-09-26T14:44:55.486Z,90.57
2022-09-26T14:48:12.838Z,91.20
2022-09-26T14:51:19.174Z,91.35
2022-09-26T14:54:31.902Z,88.12
2022-09-26T14:57:34.653Z,89.94
2022-09-26T15:00:43.333Z,90.07
2022-09-26T15:03:56.918Z,89.30
2022-09-26T15:07:03.925Z,88.69
2022-09-26T15:10:14.293Z,89.64
2022-09-26T15:13:30.875Z,89.96
2022-09-26T15:16:40.549Z,89.55
2022-09-26T15:19:49.933Z,85.86
2022-09-26T15:22:57.215Z,85.82
2022-09-26T15:26:06.052Z,87.21
2022-09-26T15:29:12.386Z,85.73
2022-09-26T15:32:19.141Z,84.28
2022-09-26T15:35:20.570Z,84.63
2022-09-26T15:38:23.822Z,85.04
2022-09-26T15:41:43.910Z,83.91
2022-09-26T15:44:54.872Z,84.02
2022-09-26T15:47:58.839Z,83.64
2022-09-26T15:51:15.688Z,83.52
2022-09-26T15:54:23.780Z,83.46
2022-09-26T15:57:28.034Z,83.97
2022-09-26T16:00:37.537Z,84.12
2022-09-26T16:03:57.320Z,83.02
2022-09-26T16:07:14.944Z,82.71
2022-09-26T16:10:28.509Z,84.21
2022-09-26T16:13:39.992Z,83.71
2022-09-26T16:16:41.653Z,83.87
2022-09-26T16:19:53.688Z,82.73
2022-09-26T16:23:03.375Z,83.15
2022-09-26T16:26:31.216Z,82.75
2022-09-26T16:29:35.373Z,83.74
2022-09-26T16:32:37.345Z,83.45
2022-09-26T16:35:47.385Z,83.50
2022-09-26T16:39:03.815Z,83.32
2022-09-26T16:42:16.969Z,83.84
2022-09-26T16:45:18.950Z,83.51
2022-09-26T16:48:38.978Z,84.45
2022-09-26T16:51:40.925Z,84.51
2022-09-26T16:54:42.647Z,83.88
2022-09-26T16:57:55.802Z,83.44
2022-09-26T17:01:15.943Z,84.40
2022-09-26T17:04:19.536Z,83.47
2022-09-26T17:07:22.849Z,84.02
2022-09-26T17:10:25.610Z,84.54
2022-09-26T17:13:32.833Z,84.37
2022-09-26T17:16:34.476Z,84.13
2022-09-26T17:19:41.164Z,84.10
2022-09-26T17:22:42.807Z,84.64
2022-09-26T17:25:48.165Z,84.36
2022-09-26T17:28:52.853Z,83.97
2022-09-26T17:31:56.031Z,83.97
2022-09-26T17:35:00.894Z,84.02
2022-09-26T17:38:03.062Z,84.26
2022-09-26T17:41:04.759Z,83.73
2022-09-26T17:44:06.411Z,83.04
2022-09-26T17:47:10.606Z,82.75
2022-09-26T17:50:23.157Z,82.92
2022-09-26T17:53:25.455Z,82.69
2022-09-26T17:56:27.176Z,83.26
2022-09-26T17:59:29.102Z,82.19
2022-09-26T20:54:46.885Z,100.00
2022-09-26T21:48:36.106Z,100.00
2022-09-26T21:55:32.012Z,100.00
2022-09-26T21:59:24.443Z,100.00
2022-09-26T22:02:28.097Z,100.00
2022-09-26T22:06:16.659Z,100.00
2022-09-26T22:09:38.246Z,100.00
2022-09-26T22:12:40.499Z,100.00
2022-09-26T22:15:42.270Z,100.00
2022-09-26T22:18:44.336Z,100.00
2022-09-26T22:21:46.229Z,100.00
2022-09-26T22:24:50.664Z,100.00
2022-09-26T22:27:52.519Z,100.00
2022-09-26T22:31:06.970Z,100.00
2022-09-26T22:34:08.991Z,100.00
2022-09-26T22:37:13.451Z,100.00
2022-09-26T22:40:18.072Z,100.00
2022-09-26T22:43:21.149Z,100.00
2022-09-26T22:46:25.925Z,100.00
2022-09-26T22:49:27.952Z,100.00
2022-09-26T22:52:31.041Z,100.00
2022-09-26T22:55:37.559Z,100.00
2022-09-26T22:58:43.950Z,100.00
2022-09-26T23:01:59.570Z,100.00
2022-09-26T23:05:04.509Z,100.00
2022-09-26T23:08:06.314Z,100.00
2022-09-26T23:11:28.657Z,100.00
2022-09-26T23:14:34.408Z,100.00
2022-09-26T23:17:37.093Z,100.00
2022-09-26T23:20:43.025Z,100.00
2022-09-26T23:23:46.528Z,100.00
2022-09-26T23:26:48.297Z,100.00
2022-09-26T23:29:50.019Z,100.00
2022-09-26T23:32:51.699Z,100.00
2022-09-26T23:35:58.041Z,100.00
2022-09-26T23:38:59.900Z,100.00
2022-09-26T23:42:02.708Z,100.00
2022-09-26T23:45:04.980Z,100.00
2022-09-26T23:48:06.677Z,100.00
2022-09-26T23:51:09.320Z,100.00
2022-09-26T23:54:11.342Z,100.00
2022-09-26T23:57:12.948Z,100.00
